Columbus Muni Information

FAA: BAK - ICAO: KBAK

Columbus Muni (Airport) Location

State Indiana
County Bartholomew
City Columbus
Columbus Muni (Airport) is 3 miles north of Columbus, IN.
Latitude 39-15-42.9000N
Longitude 085-53-46.8000W
Elevation 656ft

Columbus Muni METARs

METAR KBAK 190150Z 17015G22KT 10SM CLR 03/M02 A2993
Altimeter 29.93"
Temperature 3.0°C (37.4°F)
Wind 170° at 15KT with gusts to 22KT
Clouds Skies are clear.
Visibility 10.0mi
Time observed: 2022-01-19T01:50:00Z

Columbus Muni (Airport) Details

Status Operational
Activation February 1944
Ownership Public
Usage Public
Chart ST LOUIS
ATC on-site Yes
Beacon schedule sunset-sunrise
Beacon color clear green

Columbus Muni (Airport) Contacts

Owner CITY OF COLUMBUS
Owner address 4770 RAY BOLL BLVD, COLUMBUS, IN 47203
Owner phone 812-376-2519
Manager JOHN BORMANN
Manager address 10320 COVINGTON RD., FORT WAYNE, IN 46804
Manager phone 260-432-4723

Columbus Muni Radio Frequencies

Columbus Muni (Airport) Radio Frequencies

UNICOM 122.95
Common traffic advisory frequency (CTAF) 118.6